Time;durP1;ratioP1;P1;durP2;ratioP2;P2;SDS_P1;SDS_P2;PMS_P1;PMS_P2;Temp;Humidity;BMP_temperature;BMP_pressure;BME280_temperature;BME280_humidity;BME280_pressure;Samples;Min_cycle;Max_cycle;Signal;HPM_P1;HPM_P2
2023/06/17 00:02:17;;;;;;;4.53;2.55;;;;;;;21.78;85.85;98803.97;4955124;29;20032;-81
2023/06/17 00:04:42;;;;;;;4.70;3.00;;;;;;;21.69;86.24;98799.31;4954678;29;20039;-81
2023/06/17 00:07:08;;;;;;;6.28;3.67;;;;;;;21.77;86.21;98809.47;4954576;29;20469;-80
2023/06/17 00:09:33;;;;;;;4.22;3.17;;;;;;;21.68;85.82;98783.31;4954471;29;20505;-81
2023/06/17 00:12:02;;;;;;;6.45;3.92;;;;;;;21.82;86.05;98834.13;4954765;29;20039;-82
2023/06/17 00:14:28;;;;;;;3.15;2.35;;;;;;;21.72;86.03;98814.31;4954135;29;20035;-82
2023/06/17 00:16:54;;;;;;;4.28;3.03;;;;;;;21.47;85.94;98783.91;4954548;29;20501;-82
2023/06/17 00:19:20;;;;;;;4.78;2.20;;;;;;;21.58;86.18;98801.91;4954199;29;20034;-81
2023/06/17 00:21:49;;;;;;;3.67;2.20;;;;;;;21.62;85.60;98803.41;4953885;29;20038;-82
2023/06/17 00:24:18;;;;;;;3.97;2.58;;;;;;;21.67;85.21;98811.97;4936982;29;20038;-81
2023/06/17 00:26:45;;;;;;;5.30;3.05;;;;;;;21.63;86.14;98815.88;4954412;29;20038;-81
2023/06/17 00:29:11;;;;;;;7.80;2.88;;;;;;;21.66;86.13;98822.81;4954128;29;20466;-81
2023/06/17 00:31:37;;;;;;;6.13;3.17;;;;;;;21.61;86.67;98825.84;4953507;28;20486;-82
2023/06/17 00:34:02;;;;;;;4.25;2.90;;;;;;;21.63;87.34;98831.97;4954345;29;20050;-81
2023/06/17 00:36:28;;;;;;;4.45;2.38;;;;;;;21.36;87.50;98806.16;4953534;29;20465;-81
2023/06/17 00:38:53;;;;;;;3.85;2.83;;;;;;;21.29;88.90;98837.09;4936870;29;20409;-81
2023/06/17 00:41:19;;;;;;;3.42;2.42;;;;;;;21.25;89.03;98815.00;4953632;29;20046;-81
2023/06/17 00:43:45;;;;;;;11.88;3.70;;;;;;;21.42;88.58;98832.53;4936508;29;20054;-81
2023/06/17 00:46:33;;;;;;;2.50;1.98;;;;;;;21.07;89.37;98803.81;4954219;29;20074;-81
2023/06/17 00:49:00;;;;;;;4.50;3.10;;;;;;;21.15;89.53;98827.38;4954540;29;20031;-81
2023/06/17 00:51:25;;;;;;;5.45;3.85;;;;;;;21.30;88.83;98846.84;4953658;29;20489;-81
2023/06/17 00:53:51;;;;;;;11.15;3.78;;;;;;;21.27;88.52;98829.16;4953860;29;20034;-81
2023/06/17 00:56:17;;;;;;;5.65;3.60;;;;;;;21.09;88.71;98801.84;4953981;29;20031;-81
2023/06/17 00:58:44;;;;;;;5.55;3.78;;;;;;;21.39;88.53;98838.13;4953728;29;20034;-81
2023/06/17 01:01:10;;;;;;;6.13;3.67;;;;;;;21.33;88.25;98825.16;4936206;29;20067;-81
2023/06/17 01:03:36;;;;;;;4.15;2.75;;;;;;;21.33;87.97;98816.28;4953631;29;20047;-81
2023/06/17 01:06:24;;;;;;;4.43;2.55;;;;;;;21.42;87.59;98823.63;4953458;29;20035;-81
2023/06/17 01:09:01;;;;;;;4.50;3.33;;;;;;;21.35;87.41;98833.97;4952529;29;20038;-82
2023/06/17 01:11:29;;;;;;;9.05;4.32;;;;;;;21.21;86.95;98812.66;4951569;29;20047;-82
2023/06/17 01:13:57;;;;;;;5.47;3.03;;;;;;;21.29;86.97;98827.22;4932480;29;20494;-82
2023/06/17 01:16:25;;;;;;;3.53;2.28;;;;;;;21.22;86.42;98825.09;4934244;29;20038;-81
2023/06/17 01:18:52;;;;;;;9.77;3.83;;;;;;;21.14;87.78;98825.66;4917267;29;20050;-81
2023/06/17 01:21:20;;;;;;;5.95;3.60;;;;;;;21.17;87.49;98820.06;4934000;29;20040;-82
2023/06/17 01:23:49;;;;;;;4.05;3.40;;;;;;;21.23;88.06;98838.41;4948644;29;20478;-82
2023/06/17 01:26:16;;;;;;;5.82;2.90;;;;;;;21.20;87.93;98821.69;4953201;29;20122;-81
2023/06/17 01:28:44;;;;;;;7.47;3.60;;;;;;;21.37;87.02;98837.38;4953897;29;20055;-82
2023/06/17 01:31:12;;;;;;;3.30;2.42;;;;;;;21.25;87.34;98828.41;4953108;29;20039;-82
2023/06/17 01:33:41;;;;;;;4.03;2.55;;;;;;;21.15;86.75;98800.56;4953789;29;20114;-81
2023/06/17 01:36:13;;;;;;;6.03;4.05;;;;;;;21.23;86.35;98805.38;4953492;29;20027;-83
2023/06/17 01:38:49;;;;;;;7.25;4.40;;;;;;;21.36;86.22;98827.63;4953501;29;20114;-81
2023/06/17 01:41:23;;;;;;;7.65;2.33;;;;;;;21.33;85.79;98830.53;4953279;29;20039;-81
2023/06/17 01:43:49;;;;;;;5.43;2.25;;;;;;;21.38;85.78;98832.88;4952546;28;20055;-81
2023/06/17 01:46:16;;;;;;;5.95;3.70;;;;;;;21.30;86.11;98833.44;4953106;29;20460;-81
2023/06/17 01:48:41;;;;;;;10.30;4.55;;;;;;;21.17;85.85;98812.03;4935739;29;20035;-81
2023/06/17 01:51:07;;;;;;;4.88;2.85;;;;;;;21.00;86.20;98786.44;4953246;29;20032;-81
2023/06/17 01:53:33;;;;;;;9.93;4.82;;;;;;;21.10;86.16;98800.03;4952049;29;20101;-82
2023/06/17 01:55:58;;;;;;;4.32;2.72;;;;;;;21.14;86.23;98806.03;4952308;29;20035;-82
2023/06/17 01:58:24;;;;;;;4.70;3.08;;;;;;;21.00;87.00;98804.34;4968749;29;20031;-82
2023/06/17 02:00:50;;;;;;;8.52;4.20;;;;;;;21.04;86.74;98812.06;4961770;29;20039;-82
2023/06/17 02:03:19;;;;;;;5.45;3.33;;;;;;;21.25;86.79;98822.19;4957156;28;20091;-81
2023/06/17 02:05:45;;;;;;;4.30;3.03;;;;;;;20.96;87.49;98801.06;4957544;29;20071;-85
2023/06/17 02:08:11;;;;;;;4.43;3.17;;;;;;;21.17;86.91;98812.03;4970721;29;20043;-79
2023/06/17 02:10:37;;;;;;;5.53;3.63;;;;;;;21.10;87.27;98800.03;4976110;29;20066;-77
2023/06/17 02:13:03;;;;;;;4.65;2.78;;;;;;;21.26;87.14;98810.50;4976168;29;20236;-82
2023/06/17 02:15:32;;;;;;;4.07;2.42;;;;;;;21.27;87.26;98813.09;4976403;29;20019;-80
2023/06/17 02:17:58;;;;;;;5.32;3.35;;;;;;;21.17;87.19;98803.13;4971873;29;20462;-82
2023/06/17 02:20:24;;;;;;;4.30;2.65;;;;;;;21.25;87.18;98803.41;4952873;29;20042;-81
2023/06/17 02:22:49;;;;;;;5.55;3.40;;;;;;;21.26;87.44;98797.09;4952063;29;20122;-81
2023/06/17 02:25:15;;;;;;;3.20;2.03;;;;;;;21.37;86.70;98807.88;4952507;29;20028;-81
2023/06/17 02:27:41;;;;;;;5.63;3.47;;;;;;;21.43;87.12;98812.78;4951959;29;20394;-81
2023/06/17 02:30:09;;;;;;;5.35;2.88;;;;;;;21.45;86.73;98802.81;4951386;29;20046;-81
2023/06/17 02:32:35;;;;;;;6.65;3.85;;;;;;;21.46;87.29;98817.94;4952024;29;20082;-80
2023/06/17 02:35:03;;;;;;;6.10;3.63;;;;;;;21.45;87.12;98815.38;4951921;29;20117;-81
2023/06/17 02:37:29;;;;;;;4.43;2.50;;;;;;;21.24;87.80;98788.28;4952196;29;20032;-81
2023/06/17 02:39:55;;;;;;;5.88;2.83;;;;;;;21.40;87.02;98799.59;4951863;29;20528;-80
2023/06/17 02:42:20;;;;;;;6.00;3.40;;;;;;;21.27;87.13;98774.66;4951615;29;20090;-82
2023/06/17 02:44:46;;;;;;;6.57;3.85;;;;;;;21.33;86.99;98782.25;4934374;29;20433;-81
2023/06/17 02:47:13;;;;;;;4.07;2.80;;;;;;;21.36;87.33;98787.38;4951668;29;20531;-80
2023/06/17 02:49:38;;;;;;;4.75;2.67;;;;;;;21.37;87.90;98799.84;4951611;29;20028;-80
2023/06/17 02:52:04;;;;;;;5.03;3.70;;;;;;;21.36;87.85;98797.28;4949891;29;20118;-81
2023/06/17 02:54:30;;;;;;;6.60;3.92;;;;;;;21.41;88.31;98814.75;4955192;28;20098;-81
2023/06/17 02:56:55;;;;;;;6.90;3.97;;;;;;;21.29;88.67;98784.31;4957572;28;20130;-81
2023/06/17 02:59:22;;;;;;;5.55;3.17;;;;;;;21.43;88.24;98801.22;4956383;28;20495;-81
2023/06/17 03:01:47;;;;;;;8.68;4.30;;;;;;;21.34;88.70;98788.50;4958368;29;20528;-82
2023/06/17 03:04:13;;;;;;;5.47;4.05;;;;;;;21.39;87.94;98795.19;4957897;29;20063;-81
2023/06/17 03:06:41;;;;;;;4.28;3.50;;;;;;;21.41;88.11;98795.09;4957220;29;20054;-80
2023/06/17 03:09:08;;;;;;;4.47;3.25;;;;;;;21.42;87.80;98803.03;4958065;28;20035;-80
2023/06/17 03:11:35;;;;;;;5.50;3.67;;;;;;;21.47;88.49;98816.09;4957622;28;20074;-80
2023/06/17 03:14:01;;;;;;;5.35;3.40;;;;;;;21.31;88.82;98797.59;4958253;29;20035;-79
2023/06/17 03:16:28;;;;;;;5.68;4.28;;;;;;;21.52;87.87;98819.34;4958123;28;20031;-79
2023/06/17 03:18:53;;;;;;;7.68;4.90;;;;;;;21.62;86.84;98817.66;4957582;28;20090;-80
2023/06/17 03:21:19;;;;;;;4.75;2.50;;;;;;;21.68;86.33;98823.56;4958011;28;20035;-79
2023/06/17 03:23:45;;;;;;;4.55;3.55;;;;;;;21.51;86.51;98804.22;4957581;29;20127;-80
2023/06/17 03:26:11;;;;;;;3.70;3.17;;;;;;;21.51;86.51;98809.56;4957128;28;20513;-81
2023/06/17 03:28:36;;;;;;;4.55;3.17;;;;;;;21.58;85.92;98813.53;4957850;29;20050;-80
2023/06/17 03:31:02;;;;;;;8.88;3.33;;;;;;;21.41;86.63;98822.78;4957653;29;20058;-80
2023/06/17 03:33:28;;;;;;;4.43;3.05;;;;;;;21.23;87.15;98800.00;4957591;28;20035;-80
2023/06/17 03:35:53;;;;;;;6.05;3.83;;;;;;;21.37;87.54;98823.97;4957477;29;20106;-80
2023/06/17 03:38:19;;;;;;;7.97;3.53;;;;;;;21.37;86.89;98807.03;4957688;29;20027;-80
2023/06/17 03:40:45;;;;;;;7.40;3.70;;;;;;;21.49;87.06;98827.63;4957247;29;20058;-80
2023/06/17 03:43:13;;;;;;;7.50;3.83;;;;;;;21.46;87.62;98828.66;4957672;28;20532;-80
2023/06/17 03:45:39;;;;;;;6.05;3.95;;;;;;;21.49;87.64;98824.94;4957359;29;20039;-80
2023/06/17 03:48:05;;;;;;;4.47;3.40;;;;;;;21.29;87.55;98786.16;4957767;29;20035;-80
2023/06/17 03:50:31;;;;;;;4.03;2.80;;;;;;;21.36;87.33;98799.94;4957359;29;20164;-80
2023/06/17 03:52:57;;;;;;;4.75;3.13;;;;;;;21.49;87.35;98824.03;4957293;29;20381;-79
2023/06/17 03:55:23;;;;;;;5.00;3.15;;;;;;;21.22;87.55;98779.50;4957403;28;20506;-80
2023/06/17 03:57:49;;;;;;;5.57;3.05;;;;;;;21.60;86.68;98833.03;4938722;29;20085;-80
2023/06/17 04:00:15;;;;;;;7.32;4.57;;;;;;;21.51;86.84;98824.81;4938299;29;20027;-80
2023/06/17 04:02:45;;;;;;;5.45;3.78;;;;;;;21.43;86.36;98796.69;4956763;28;20027;-79
2023/06/17 04:05:13;;;;;;;9.75;4.47;;;;;;;21.72;86.19;98838.47;4955674;28;20043;-80
2023/06/17 04:07:39;;;;;;;7.13;5.07;;;;;;;21.66;86.09;98823.69;4953138;29;20023;-80
2023/06/17 04:10:08;;;;;;;8.98;4.40;;;;;;;21.76;86.21;98846.16;4953033;29;20046;-80
2023/06/17 04:12:38;;;;;;;8.65;5.38;;;;;;;21.72;86.41;98831.28;4953750;29;20113;-79
2023/06/17 04:15:07;;;;;;;7.95;4.22;;;;;;;21.80;85.92;98862.91;4948947;29;20087;-79
2023/06/17 04:17:33;;;;;;;5.70;4.53;;;;;;;21.61;86.26;98829.41;4953815;29;20039;-80
2023/06/17 04:20:05;;;;;;;8.07;4.68;;;;;;;21.53;87.15;98826.41;4947852;29;20027;-79
2023/06/17 04:22:31;;;;;;;8.77;5.00;;;;;;;21.63;87.68;98853.44;4941586;29;20024;-80
2023/06/17 04:24:57;;;;;;;6.00;3.65;;;;;;;21.41;88.47;98827.28;4939968;29;20043;-79
2023/06/17 04:27:23;;;;;;;7.38;4.10;;;;;;;21.69;87.62;98862.84;4939059;29;20034;-79
2023/06/17 04:29:49;;;;;;;8.98;4.65;;;;;;;21.61;88.16;98852.66;4940967;29;20039;-79
2023/06/17 04:32:16;;;;;;;7.22;4.93;;;;;;;21.66;87.81;98847.84;4940152;29;20454;-79
2023/06/17 04:34:47;;;;;;;8.07;5.32;;;;;;;21.58;87.84;98839.47;4935089;29;20517;-80
2023/06/17 04:37:14;;;;;;;6.30;4.38;;;;;;;21.42;88.07;98827.16;4942651;29;20202;-80
2023/06/17 04:39:42;;;;;;;7.03;4.28;;;;;;;21.50;88.55;98844.56;4937212;29;20031;-81
2023/06/17 04:42:09;;;;;;;5.55;4.18;;;;;;;21.53;88.18;98837.13;4920943;29;20119;-81
2023/06/17 04:44:37;;;;;;;8.52;4.47;;;;;;;21.49;88.89;98845.50;4937129;29;20066;-80
2023/06/17 04:47:04;;;;;;;11.13;5.13;;;;;;;21.60;89.25;98859.03;4938374;29;20075;-80
2023/06/17 04:49:31;;;;;;;6.65;4.20;;;;;;;21.64;89.55;98871.22;4939368;29;20873;-80
2023/06/17 04:51:56;;;;;;;8.35;4.97;;;;;;;21.75;89.17;98883.84;4935882;29;20019;-80
2023/06/17 04:54:24;;;;;;;6.88;5.70;;;;;;;21.59;89.58;98849.25;4938633;29;20031;-80
2023/06/17 04:56:51;;;;;;;7.13;5.80;;;;;;;21.40;89.16;98817.53;4936651;29;20035;-80
2023/06/17 04:59:19;;;;;;;6.28;4.45;;;;;;;21.59;89.39;98852.78;4936999;29;20063;-80
2023/06/17 05:01:44;;;;;;;5.93;4.15;;;;;;;21.62;89.32;98863.28;4919065;29;20059;-80
2023/06/17 05:04:10;;;;;;;5.63;4.25;;;;;;;21.63;88.71;98848.06;4937893;29;20042;-81
2023/06/17 05:06:35;;;;;;;8.07;5.43;;;;;;;21.65;89.19;98872.94;4939784;29;20040;-81
2023/06/17 05:09:01;;;;;;;12.00;5.43;;;;;;;21.57;89.47;98875.34;4941446;29;20485;-80
2023/06/17 05:11:26;;;;;;;6.97;5.05;;;;;;;21.79;89.66;98901.44;4937784;29;20414;-80
2023/06/17 05:13:52;;;;;;;9.15;4.22;;;;;;;21.57;89.43;98845.84;4923130;29;20047;-81
2023/06/17 05:16:17;;;;;;;5.97;4.53;;;;;;;21.90;89.26;98873.81;4940421;28;20043;-80
2023/06/17 05:18:42;;;;;;;7.80;5.50;;;;;;;21.95;89.36;98880.56;4939637;29;20019;-81
2023/06/17 05:21:09;;;;;;;7.55;4.88;;;;;;;21.95;89.37;98883.25;4938527;29;20031;-79
2023/06/17 05:23:34;;;;;;;9.95;5.93;;;;;;;21.71;90.29;98872.50;4938561;29;20031;-80
2023/06/17 05:26:00;;;;;;;9.25;4.50;;;;;;;21.67;89.99;98857.59;4920630;29;20066;-81
2023/06/17 05:28:25;;;;;;;9.85;6.03;;;;;;;21.96;90.24;98879.56;4937295;29;20028;-81
2023/06/17 05:30:51;;;;;;;8.80;5.97;;;;;;;22.11;89.97;98914.31;4937063;29;20051;-81
2023/06/17 05:33:16;;;;;;;7.75;4.18;;;;;;;21.92;89.90;98890.66;4938783;29;20464;-81
2023/06/17 05:35:42;;;;;;;9.10;6.45;;;;;;;22.12;90.00;98934.81;4944736;29;20106;-81
2023/06/17 05:38:07;;;;;;;8.70;5.88;;;;;;;22.09;89.69;98918.91;4940509;29;20054;-80
2023/06/17 05:40:32;;;;;;;11.23;5.63;;;;;;;21.94;89.71;98905.69;4941950;29;20031;-81
2023/06/17 05:42:58;;;;;;;7.25;5.47;;;;;;;22.14;88.88;98903.34;4940604;29;20050;-85
2023/06/17 05:45:23;;;;;;;7.80;5.95;;;;;;;21.90;90.01;98897.97;4938510;29;20023;-82
2023/06/17 05:47:49;;;;;;;7.03;5.05;;;;;;;22.30;89.38;98946.88;4937704;29;20126;-81
2023/06/17 05:50:14;;;;;;;13.02;5.80;;;;;;;22.18;88.10;98911.06;4935610;29;20087;-81
2023/06/17 05:52:40;;;;;;;9.38;6.72;;;;;;;22.23;89.62;98947.44;4936377;29;20031;-81
2023/06/17 05:55:06;;;;;;;4.75;3.83;;;;;;;22.08;90.00;98923.44;4937909;29;20039;-81
2023/06/17 05:57:31;;;;;;;8.32;5.85;;;;;;;22.18;89.00;98924.47;4939537;29;20034;-83
2023/06/17 05:59:56;;;;;;;6.95;4.78;;;;;;;22.10;88.88;98932.22;4938686;29;20027;-80
2023/06/17 06:02:22;;;;;;;9.43;5.88;;;;;;;22.35;87.67;98950.09;4937151;29;20036;-83
2023/06/17 06:04:47;;;;;;;9.48;5.57;;;;;;;22.23;87.40;98918.75;4928671;29;20110;-82
2023/06/17 06:07:13;;;;;;;8.07;4.70;;;;;;;22.27;87.38;98920.22;4938918;29;20047;-85
2023/06/17 06:09:38;;;;;;;6.72;4.70;;;;;;;22.13;88.19;98912.38;4937815;29;20031;-81
2023/06/17 06:12:04;;;;;;;8.80;5.45;;;;;;;22.51;87.98;98954.31;4937994;29;20051;-81
2023/06/17 06:14:30;;;;;;;6.60;5.20;;;;;;;22.48;87.93;98941.13;4940433;29;20110;-81
2023/06/17 06:16:55;;;;;;;5.53;3.95;;;;;;;22.42;89.81;98950.47;4939227;29;20031;-81
2023/06/17 06:19:21;;;;;;;10.95;6.45;;;;;;;22.38;88.33;98921.28;4936873;29;20028;-82
2023/06/17 06:21:46;;;;;;;7.22;4.65;;;;;;;22.50;89.03;98953.44;4940183;29;20039;-80
2023/06/17 06:24:12;;;;;;;8.73;6.47;;;;;;;22.57;88.38;98959.22;4935392;29;20039;-81
2023/06/17 06:26:37;;;;;;;13.13;5.35;;;;;;;22.31;88.36;98959.34;4937052;29;20054;-82
2023/06/17 06:29:02;;;;;;;7.85;4.95;;;;;;;22.17;88.60;98924.59;4938267;29;20031;-82
2023/06/17 06:31:28;;;;;;;7.00;4.95;;;;;;;22.50;89.20;98966.88;4940039;29;20031;-83
2023/06/17 06:33:53;;;;;;;13.00;5.72;;;;;;;22.51;89.18;98959.69;4940049;29;20066;-84
2023/06/17 06:36:19;;;;;;;12.80;6.13;;;;;;;22.72;88.41;98965.22;4938510;29;20032;-80
2023/06/17 06:38:44;;;;;;;8.32;5.70;;;;;;;22.73;86.73;98940.06;4937699;29;20043;-82
2023/06/17 06:41:10;;;;;;;11.13;5.82;;;;;;;22.66;87.03;98950.44;4937484;29;20465;-81
2023/06/17 06:43:35;;;;;;;9.10;6.03;;;;;;;22.60;87.98;98939.28;4938159;29;20057;-83
2023/06/17 06:46:01;;;;;;;12.98;6.35;;;;;;;22.79;87.59;98949.50;4936110;29;20036;-83
2023/06/17 06:48:26;;;;;;;12.68;5.18;;;;;;;22.75;87.33;98956.94;4936703;29;20090;-81
2023/06/17 06:50:51;;;;;;;7.43;5.70;;;;;;;22.58;87.92;98914.38;4931220;29;20030;-80
2023/06/17 06:53:19;;;;;;;10.05;4.85;;;;;;;22.74;87.83;98949.84;4936797;29;20054;-81
2023/06/17 06:55:44;;;;;;;6.22;4.65;;;;;;;22.68;87.70;98929.69;4925081;29;20371;-80
2023/06/17 06:58:10;;;;;;;8.80;4.93;;;;;;;22.70;87.59;98933.09;4938294;29;20027;-81
2023/06/17 07:00:35;;;;;;;6.60;4.75;;;;;;;22.57;88.54;98928.78;4933034;29;20485;-81
2023/06/17 07:03:01;;;;;;;7.70;4.95;;;;;;;22.56;89.30;98933.31;4935934;29;20041;-80
2023/06/17 07:05:26;;;;;;;9.98;7.03;;;;;;;22.63;87.50;98953.38;4936882;29;20024;-81
2023/06/17 07:07:52;;;;;;;7.50;5.50;;;;;;;22.52;89.00;98926.44;4935779;29;20513;-81
2023/06/17 07:10:17;;;;;;;6.60;4.63;;;;;;;22.31;90.15;98923.59;4937232;29;20032;-83
2023/06/17 07:12:43;;;;;;;7.90;5.72;;;;;;;22.31;90.98;98920.91;4940674;29;20051;-80
2023/06/17 07:15:08;;;;;;;11.55;5.10;;;;;;;22.57;90.65;98936.84;4941408;29;20106;-82
2023/06/17 07:17:34;;;;;;;8.02;6.72;;;;;;;22.29;89.92;98958.59;4942339;29;20023;-81
2023/06/17 07:19:59;;;;;;;6.95;5.15;;;;;;;22.30;91.69;98954.06;4941397;29;20621;-83
2023/06/17 07:22:25;;;;;;;8.32;5.75;;;;;;;22.44;90.49;98955.75;4942824;29;20110;-84
2023/06/17 07:24:51;;;;;;;7.82;5.63;;;;;;;22.50;90.57;98955.28;4940893;29;20460;-81
2023/06/17 07:27:16;;;;;;;8.10;5.63;;;;;;;22.35;91.68;98957.28;4938144;29;20181;-84
2023/06/17 07:29:42;;;;;;;15.88;6.18;;;;;;;22.02;91.46;98923.91;4943930;29;20090;-83
2023/06/17 07:32:07;;;;;;;8.30;6.03;;;;;;;22.25;91.46;98956.25;4940474;29;20039;-84
2023/06/17 07:34:34;;;;;;;8.35;6.85;;;;;;;22.13;91.72;98925.78;4928534;29;20451;-84
2023/06/17 07:37:00;;;;;;;9.80;7.32;;;;;;;21.86;92.02;98916.16;4940711;29;20031;-85
2023/06/17 07:39:25;;;;;;;10.38;6.63;;;;;;;22.02;94.47;98936.50;4940404;29;20035;-84
2023/06/17 07:41:51;;;;;;;8.00;6.30;;;;;;;22.09;94.57;98943.09;4946538;29;20039;-82
2023/06/17 07:44:17;;;;;;;14.10;5.82;;;;;;;22.27;93.30;98933.66;4945442;29;20424;-84
2023/06/17 07:46:43;;;;;;;9.88;5.93;;;;;;;21.97;90.21;98908.13;4941348;29;20031;-82
2023/06/17 07:49:08;;;;;;;17.13;5.95;;;;;;;22.11;91.56;98952.75;4938911;29;20043;-83
2023/06/17 07:51:34;;;;;;;6.80;5.43;;;;;;;22.28;90.38;98956.03;4920946;29;20036;-83
2023/06/17 07:53:59;;;;;;;7.38;4.50;;;;;;;22.14;91.02;98955.22;4946126;29;20073;-84
2023/06/17 07:56:27;;;;;;;8.25;5.65;;;;;;;22.04;89.75;98934.53;4944889;29;20081;-83
2023/06/17 07:58:52;;;;;;;11.45;5.53;;;;;;;22.13;88.48;98921.25;4921698;29;20034;-82
2023/06/17 08:01:18;;;;;;;8.38;4.65;;;;;;;22.23;88.60;98945.63;4951302;29;20035;-83
2023/06/17 08:03:43;;;;;;;8.65;5.88;;;;;;;22.07;88.90;98918.19;4942292;29;20066;-83
2023/06/17 08:06:13;;;;;;;6.22;4.90;;;;;;;22.39;89.26;98956.09;4944879;29;20036;-83
2023/06/17 08:08:40;;;;;;;7.78;4.88;;;;;;;22.69;85.44;98974.41;4928536;29;20082;-84
2023/06/17 08:11:05;;;;;;;7.25;4.88;;;;;;;22.30;85.59;98944.19;4940974;29;20122;-83
2023/06/17 08:13:31;;;;;;;6.18;4.45;;;;;;;22.62;84.01;98942.75;4939416;29;20118;-83
2023/06/17 08:15:56;;;;;;;8.57;5.15;;;;;;;22.57;84.40;98940.41;4940755;29;20086;-83
2023/06/17 08:18:21;;;;;;;7.22;4.68;;;;;;;22.69;86.14;98949.34;4941933;29;20035;-85
2023/06/17 08:20:47;;;;;;;6.03;4.88;;;;;;;22.68;83.51;98953.88;4939456;29;20047;-84
2023/06/17 08:23:13;;;;;;;6.70;4.65;;;;;;;22.70;85.46;98949.22;4939151;29;20064;-83
2023/06/17 08:25:39;;;;;;;8.40;4.95;;;;;;;22.90;84.48;98960.28;4939820;29;20059;-83
2023/06/17 08:28:04;;;;;;;4.63;3.65;;;;;;;22.91;83.59;98974.56;4941218;29;20027;-83
2023/06/17 08:30:30;;;;;;;8.15;4.28;;;;;;;22.92;82.91;98971.75;4941009;29;20572;-83
2023/06/17 08:32:57;;;;;;;8.82;4.70;;;;;;;22.56;81.81;98975.47;4939210;29;20042;-83
2023/06/17 08:35:23;;;;;;;5.60;3.90;;;;;;;22.48;83.27;98989.47;4923542;29;20082;-83
2023/06/17 08:37:48;;;;;;;12.98;4.40;;;;;;;22.53;84.06;98981.91;4941120;29;20426;-83
2023/06/17 08:40:15;;;;;;;10.40;4.18;;;;;;;22.32;81.99;98981.69;4921149;29;20378;-83
2023/06/17 08:42:41;;;;;;;7.65;3.88;;;;;;;22.44;82.82;98958.44;4938307;29;20094;-84
2023/06/17 08:45:08;;;;;;;7.03;5.60;;;;;;;22.49;83.10;98967.00;4952854;29;20114;-84
2023/06/17 08:47:35;;;;;;;6.65;4.40;;;;;;;22.59;82.03;98977.91;4942143;29;20087;-83
2023/06/17 08:50:02;;;;;;;7.35;3.58;;;;;;;22.55;81.19;98920.84;4949316;29;20036;-84
2023/06/17 08:52:31;;;;;;;8.18;5.25;;;;;;;23.04;81.22;98984.25;4941358;28;20090;-84
2023/06/17 08:54:58;;;;;;;5.18;4.22;;;;;;;22.94;81.06;98967.13;4940642;29;20027;-84
2023/06/17 08:57:24;;;;;;;7.07;4.40;;;;;;;23.02;78.91;98953.94;4940566;29;20039;-86
2023/06/17 08:59:50;;;;;;;5.15;3.72;;;;;;;22.80;78.85;98944.00;4942546;29;20042;-83
2023/06/17 09:02:15;;;;;;;7.47;4.18;;;;;;;22.58;80.44;98960.91;4945320;29;20032;-84
2023/06/17 09:04:43;;;;;;;6.55;3.95;;;;;;;23.01;79.40;98954.91;4922581;29;20038;-83
2023/06/17 09:07:09;;;;;;;7.53;4.70;;;;;;;22.84;79.90;98933.84;4941895;29;20038;-83
2023/06/17 09:09:35;;;;;;;6.10;3.92;;;;;;;23.21;81.00;98982.09;4937823;29;20039;-84
2023/06/17 09:12:05;;;;;;;8.48;4.28;;;;;;;23.35;76.36;98997.16;4943858;29;20061;-88
2023/06/17 09:14:31;;;;;;;10.93;3.40;;;;;;;23.28;76.46;98990.53;4953738;29;20445;-82
2023/06/17 09:16:57;;;;;;;5.85;3.85;;;;;;;23.44;74.89;98966.81;4952884;29;20034;-83
2023/06/17 09:19:22;;;;;;;4.18;2.42;;;;;;;23.48;72.81;98972.81;4953267;29;20035;-86
2023/06/17 09:21:48;;;;;;;4.10;2.30;;;;;;;23.30;67.77;98983.22;4953249;29;20031;-84
2023/06/17 09:24:14;;;;;;;4.63;2.33;;;;;;;23.12;68.77;98962.16;4935719;29;20042;-82
2023/06/17 09:26:41;;;;;;;3.88;3.45;;;;;;;23.37;69.76;98989.81;4951717;29;20318;-83
2023/06/17 09:29:08;;;;;;;4.00;2.60;;;;;;;23.29;72.48;98978.81;4952490;29;20027;-84
2023/06/17 09:31:50;;;;;;;6.68;2.33;;;;;;;23.30;71.95;98981.38;4952270;29;20039;-82
2023/06/17 09:34:16;;;;;;;5.40;3.90;;;;;;;23.71;72.21;98998.75;4951977;29;20058;-84
2023/06/17 09:36:42;;;;;;;10.68;3.92;;;;;;;23.51;76.28;98984.22;4951384;29;20031;-83
2023/06/17 09:39:10;;;;;;;7.45;3.35;;;;;;;23.66;71.24;98963.25;4933823;29;20402;-83
2023/06/17 09:41:37;;;;;;;5.00;3.63;;;;;;;23.48;71.52;98971.00;4951581;29;20027;-84
2023/06/17 09:44:02;;;;;;;7.55;2.85;;;;;;;23.53;68.63;98968.78;4952101;29;20477;-85
2023/06/17 09:46:29;;;;;;;4.68;3.30;;;;;;;23.07;70.29;98957.09;4952189;29;20038;-82
2023/06/17 09:48:57;;;;;;;4.10;2.38;;;;;;;23.28;67.28;98982.47;4952340;29;20035;-83
2023/06/17 09:51:23;;;;;;;6.20;3.30;;;;;;;23.42;68.31;98991.16;4951482;29;20042;-83
2023/06/17 09:53:54;;;;;;;3.60;3.00;;;;;;;23.23;68.11;98966.69;4951786;29;20039;-85
2023/06/17 09:56:20;;;;;;;3.28;2.20;;;;;;;23.39;70.79;98967.19;4951859;29;20122;-84
2023/06/17 09:58:47;;;;;;;3.92;2.80;;;;;;;23.82;67.81;98988.94;4951612;29;20027;-83
2023/06/17 10:01:13;;;;;;;3.13;2.42;;;;;;;24.02;67.72;98974.75;4951565;29;20035;-85
2023/06/17 10:03:42;;;;;;;3.95;2.47;;;;;;;23.92;67.96;98984.56;4950788;28;20046;-83
2023/06/17 10:06:09;;;;;;;4.15;2.38;;;;;;;23.89;66.13;98995.56;4934207;29;20062;-84
2023/06/17 10:08:37;;;;;;;4.68;2.92;;;;;;;23.45;67.34;98954.22;4951352;29;20031;-84
2023/06/17 10:11:02;;;;;;;7.40;2.60;;;;;;;23.52;67.07;98985.91;4951809;29;20066;-87
2023/06/17 10:13:33;;;;;;;5.25;3.10;;;;;;;23.19;67.89;98935.66;4951700;29;20039;-83
2023/06/17 10:16:01;;;;;;;5.10;3.00;;;;;;;23.33;68.59;98956.06;4952219;29;20097;-83
2023/06/17 10:18:28;;;;;;;5.13;2.97;;;;;;;23.63;67.28;98962.66;4934466;29;20489;-83
2023/06/17 10:20:55;;;;;;;5.70;2.60;;;;;;;23.28;69.55;98986.03;4933372;29;20126;-85
2023/06/17 10:23:23;;;;;;;3.33;2.45;;;;;;;23.67;69.18;99008.06;4949954;29;20031;-82
2023/06/17 10:25:48;;;;;;;4.55;2.67;;;;;;;23.35;69.44;98957.66;4937103;29;20031;-83
2023/06/17 10:28:15;;;;;;;3.42;3.13;;;;;;;23.24;71.68;98974.63;4951355;29;20042;-81
2023/06/17 10:30:46;;;;;;;5.25;3.00;;;;;;;23.28;71.26;98979.78;4951586;29;20398;-83
2023/06/17 10:33:12;;;;;;;6.30;3.92;;;;;;;23.11;74.38;98987.38;4951012;29;20054;-83
2023/06/17 10:35:39;;;;;;;6.93;3.22;;;;;;;22.70;76.73;98967.19;4950158;29;20034;-82
2023/06/17 10:38:06;;;;;;;5.38;2.70;;;;;;;22.78;76.30;98966.59;4947539;29;20036;-83
2023/06/17 10:40:35;;;;;;;4.88;3.00;;;;;;;22.74;79.49;98963.31;4922412;29;20047;-86
2023/06/17 10:43:21;;;;;;;6.68;3.35;;;;;;;23.31;79.83;98995.69;4940863;29;20130;-84
2023/06/17 10:45:51;;;;;;;5.68;4.10;;;;;;;23.44;78.00;98990.19;4900754;29;20051;-84
2023/06/17 10:48:16;;;;;;;7.15;3.33;;;;;;;23.44;75.76;98993.75;4891848;29;20113;-84
2023/06/17 10:50:43;;;;;;;7.65;4.63;;;;;;;22.99;75.08;98956.88;4887648;29;20578;-83
2023/06/17 10:53:13;;;;;;;5.53;3.50;;;;;;;23.16;76.44;98977.09;4886485;29;20057;-82
2023/06/17 10:55:39;;;;;;;5.35;3.42;;;;;;;23.41;78.74;98978.69;4885933;29;20123;-82
2023/06/17 10:58:04;;;;;;;5.85;3.75;;;;;;;23.01;75.03;98941.44;4887551;29;20127;-84
2023/06/17 11:00:30;;;;;;;7.75;5.22;;;;;;;22.71;74.51;98956.31;4886980;29;20040;-83
2023/06/17 11:02:55;;;;;;;6.80;4.55;;;;;;;22.87;75.11;98979.34;4891239;29;20044;-83
2023/06/17 11:05:21;;;;;;;5.68;4.75;;;;;;;22.85;76.73;98981.28;4890824;29;20039;-84
2023/06/17 11:07:46;;;;;;;6.43;4.15;;;;;;;22.64;77.60;98946.16;4885958;29;20089;-84
2023/06/17 11:10:12;;;;;;;7.00;3.88;;;;;;;22.97;77.36;98953.44;4886815;29;20468;-84
2023/06/17 11:12:39;;;;;;;8.32;5.50;;;;;;;22.83;79.19;98976.03;4873518;29;20488;-83
2023/06/17 11:15:08;;;;;;;9.40;5.60;;;;;;;22.70;79.42;98941.16;4890949;29;20036;-84
2023/06/17 11:17:34;;;;;;;10.00;4.63;;;;;;;22.45;82.17;98917.16;4888146;29;20045;-84
2023/06/17 11:19:59;;;;;;;6.80;4.65;;;;;;;23.24;81.16;98958.50;4885312;29;20041;-84
2023/06/17 11:22:25;;;;;;;6.80;4.65;;;;;;;23.20;79.19;98932.84;4898464;29;20409;-84
2023/06/17 11:24:51;;;;;;;13.90;5.50;;;;;;;23.11;80.70;98930.00;4954836;29;20477;-84
2023/06/17 11:27:17;;;;;;;10.00;4.30;;;;;;;22.93;77.89;98926.91;4954267;29;20038;-83
2023/06/17 11:29:43;;;;;;;10.00;6.78;;;;;;;22.67;78.45;98924.41;4954390;29;20031;-83